createdAt,value
2022-10-23T00:01:46.421Z,24.20
2022-10-23T00:04:38.858Z,26.07
2022-10-23T00:10:29.548Z,23.30
2022-10-23T00:13:21.630Z,24.10
2022-10-23T00:16:14.328Z,22.00
2022-10-23T00:21:57.657Z,24.47
2022-10-23T00:24:50.031Z,22.80
2022-10-23T00:27:42.218Z,26.35
2022-10-23T00:30:34.641Z,25.08
2022-10-23T00:33:26.754Z,26.52
2022-10-23T00:36:20.871Z,23.98
2022-10-23T00:39:12.983Z,25.37
2022-10-23T00:42:05.076Z,22.27
2022-10-23T00:45:18.298Z,23.22
2022-10-23T00:48:10.746Z,27.80
2022-10-23T00:51:03.434Z,22.73
2022-10-23T00:54:06.736Z,29.72
2022-10-23T00:57:16.558Z,26.03
2022-10-23T01:00:13.385Z,23.30
2022-10-23T01:03:06.837Z,22.53
2022-10-23T01:06:07.833Z,25.33
2022-10-23T01:09:08.670Z,26.93
2022-10-23T01:12:09.096Z,23.83
2022-10-23T01:15:08.090Z,25.43
2022-10-23T01:18:06.471Z,26.10
2022-10-23T01:21:02.149Z,24.27
2022-10-23T01:24:12.083Z,25.80
2022-10-23T01:27:28.485Z,26.00
2022-10-23T01:30:20.927Z,22.63
2022-10-23T01:33:20.699Z,22.53
2022-10-23T01:36:18.124Z,24.00
2022-10-23T01:39:14.228Z,26.67
2022-10-23T01:42:12.353Z,21.90
2022-10-23T01:45:09.041Z,21.67
2022-10-23T01:48:11.470Z,24.97
2022-10-23T01:51:09.300Z,21.93
2022-10-23T01:54:07.514Z,19.23
2022-10-23T01:57:01.726Z,24.27
2022-10-23T01:59:58.221Z,22.10
2022-10-23T02:02:53.375Z,20.70
2022-10-23T02:05:47.470Z,22.17
2022-10-23T02:08:39.963Z,20.73
2022-10-23T02:11:37.372Z,19.97
2022-10-23T02:14:39.103Z,18.57
2022-10-23T02:17:42.899Z,23.40
2022-10-23T02:23:40.566Z,18.17
2022-10-23T02:26:40.282Z,19.40
2022-10-23T02:29:37.031Z,23.53
2022-10-23T02:32:31.096Z,22.37
2022-10-23T02:35:25.323Z,20.53
2022-10-23T02:38:37.243Z,21.83
2022-10-23T02:41:42.123Z,18.13
2022-10-23T02:44:45.235Z,18.60
2022-10-23T02:47:54.951Z,17.47
2022-10-23T02:50:55.587Z,20.43
2022-10-23T02:57:06.007Z,19.20
2022-10-23T03:00:06.656Z,22.30
2022-10-23T03:03:02.359Z,19.37
2022-10-23T03:05:56.356Z,20.07
2022-10-23T03:08:53.999Z,20.63
2022-10-23T03:11:46.095Z,20.30
2022-10-23T03:14:38.331Z,22.97
2022-10-23T03:20:23.210Z,19.52
2022-10-23T03:23:16.921Z,18.85
2022-10-23T03:26:09.326Z,22.33
2022-10-23T03:29:05.508Z,20.33
2022-10-23T03:32:00.038Z,20.70
2022-10-23T03:34:52.227Z,20.45
2022-10-23T03:37:44.301Z,20.48
2022-10-23T03:40:37.272Z,17.67
2022-10-23T03:43:29.853Z,19.40
2022-10-23T03:46:21.738Z,20.25
2022-10-23T03:49:16.524Z,18.47
2022-10-23T03:55:00.523Z,18.83
2022-10-23T04:00:44.986Z,19.02
2022-10-23T04:03:37.478Z,20.30
2022-10-23T04:06:28.968Z,20.45
2022-10-23T04:09:22.868Z,18.57
2022-10-23T04:12:15.349Z,22.10
2022-10-23T04:15:09.479Z,19.63
2022-10-23T04:18:02.363Z,21.60
2022-10-23T04:20:56.813Z,18.10
2022-10-23T04:23:48.800Z,20.80
2022-10-23T04:26:42.670Z,20.60
2022-10-23T04:29:36.153Z,21.00
2022-10-23T04:32:28.380Z,20.92
2022-10-23T04:35:21.515Z,22.53
2022-10-23T04:38:14.309Z,24.10
2022-10-23T04:41:07.832Z,23.87
2022-10-23T04:43:59.671Z,23.77
2022-10-23T04:46:52.221Z,24.25
2022-10-23T04:52:47.550Z,22.17
2022-10-23T04:56:14.088Z,28.70
2022-10-23T04:59:20.912Z,24.67
2022-10-23T05:05:03.465Z,22.90
2022-10-23T05:07:58.735Z,26.00
2022-10-23T05:11:16.880Z,30.63
2022-10-23T05:14:12.236Z,21.93
2022-10-23T05:17:09.950Z,23.03
2022-10-23T05:20:07.847Z,26.87
2022-10-23T05:23:01.891Z,24.43
2022-10-23T05:25:54.345Z,22.50
2022-10-23T05:28:47.430Z,23.40
2022-10-23T05:31:42.638Z,25.03
2022-10-23T05:34:39.592Z,24.27
2022-10-23T05:37:34.856Z,22.13
2022-10-23T05:43:43.420Z,27.70
2022-10-23T05:46:55.351Z,23.70
2022-10-23T05:50:06.750Z,24.63
2022-10-23T05:53:17.881Z,22.23
2022-10-23T05:56:37.755Z,23.63
2022-10-23T05:59:50.296Z,24.55
2022-10-23T06:03:06.190Z,22.50
2022-10-23T06:06:01.412Z,23.17
2022-10-23T06:09:05.063Z,23.77
2022-10-23T06:12:02.429Z,21.60
2022-10-23T06:14:56.256Z,22.07
2022-10-23T06:17:52.996Z,22.03
2022-10-23T06:20:46.051Z,23.30
2022-10-23T06:23:47.410Z,24.37
2022-10-23T06:26:54.743Z,24.43
2022-10-23T06:29:58.523Z,28.77
2022-10-23T06:32:50.274Z,25.00
2022-10-23T06:35:42.256Z,22.20
2022-10-23T06:38:40.834Z,23.57
2022-10-23T06:41:33.899Z,20.93
2022-10-23T06:44:26.355Z,22.60
2022-10-23T06:47:22.931Z,25.33
2022-10-23T06:50:34.366Z,22.60
2022-10-23T06:53:31.108Z,17.57
2022-10-23T06:56:30.923Z,20.07
2022-10-23T06:59:24.460Z,19.80
2022-10-23T07:02:16.812Z,24.53
2022-10-23T07:08:08.252Z,20.47
2022-10-23T07:11:09.272Z,17.83
2022-10-23T07:14:01.326Z,16.05
2022-10-23T07:16:54.194Z,21.10
2022-10-23T07:19:47.867Z,17.43
2022-10-23T07:22:40.755Z,18.25
2022-10-23T07:25:37.928Z,18.40
2022-10-23T07:28:30.488Z,20.37
2022-10-23T07:31:25.639Z,18.50
2022-10-23T07:34:38.786Z,19.90
2022-10-23T07:37:46.751Z,16.67
2022-10-23T07:40:39.396Z,16.73
2022-10-23T07:43:34.301Z,15.33
2022-10-23T07:46:26.426Z,17.50
2022-10-23T07:49:18.621Z,15.28
2022-10-23T07:52:10.392Z,15.00
2022-10-23T07:55:22.537Z,18.90
2022-10-23T07:58:17.811Z,18.73
2022-10-23T08:01:21.075Z,13.83
2022-10-23T08:04:14.971Z,17.13
2022-10-23T08:07:17.258Z,16.97
2022-10-23T08:10:11.841Z,14.10
2022-10-23T08:13:05.259Z,13.13
2022-10-23T08:16:20.247Z,17.73
2022-10-23T08:19:35.950Z,13.07
2022-10-23T08:22:28.282Z,13.87
2022-10-23T08:25:25.016Z,12.50
2022-10-23T08:28:17.983Z,11.83
2022-10-23T08:31:20.353Z,11.53
2022-10-23T08:34:32.996Z,11.90
2022-10-23T08:37:26.082Z,12.50
2022-10-23T08:40:23.523Z,13.80
2022-10-23T08:43:40.731Z,12.13
2022-10-23T08:47:05.306Z,13.10
2022-10-23T08:50:31.862Z,11.43
2022-10-23T08:53:29.007Z,12.27
2022-10-23T08:56:28.610Z,10.80
2022-10-23T08:59:28.659Z,13.23
2022-10-23T09:02:27.193Z,14.05
2022-10-23T09:05:25.356Z,10.93
2022-10-23T09:08:33.605Z,13.97
2022-10-23T09:11:33.215Z,9.90
2022-10-23T09:14:44.321Z,13.93
2022-10-23T09:17:39.356Z,10.77
2022-10-23T09:20:35.574Z,12.17
2022-10-23T09:23:27.659Z,10.63
2022-10-23T09:26:21.091Z,11.47
2022-10-23T09:29:26.096Z,9.87
2022-10-23T09:32:19.273Z,12.30
2022-10-23T09:35:25.392Z,13.17
2022-10-23T09:38:31.018Z,10.43
2022-10-23T09:41:24.686Z,9.53
2022-10-23T09:44:22.783Z,8.47
2022-10-23T09:47:20.751Z,9.10
2022-10-23T09:50:25.255Z,7.50
2022-10-23T09:53:20.328Z,6.83
2022-10-23T09:56:32.274Z,8.40
2022-10-23T09:59:29.921Z,6.75
2022-10-23T10:02:28.832Z,7.97
2022-10-23T10:05:44.655Z,8.07
2022-10-23T10:08:45.710Z,9.93
2022-10-23T10:11:42.881Z,6.40
2022-10-23T10:14:52.051Z,6.97
2022-10-23T10:17:52.623Z,5.57
2022-10-23T10:20:55.982Z,4.77
2022-10-23T10:24:02.148Z,9.13
2022-10-23T10:27:08.050Z,9.35
2022-10-23T10:30:10.685Z,8.30
2022-10-23T10:33:07.561Z,5.53
2022-10-23T10:36:06.319Z,6.17
2022-10-23T10:39:02.325Z,4.60
2022-10-23T10:42:16.799Z,4.90
2022-10-23T10:45:24.291Z,8.93
2022-10-23T10:48:28.249Z,7.50
2022-10-23T10:52:01.502Z,5.00
2022-10-23T10:55:04.399Z,5.15
2022-10-23T10:58:02.977Z,5.93
2022-10-23T11:01:00.404Z,6.00
2022-10-23T11:03:56.691Z,3.70
2022-10-23T11:06:52.473Z,4.85
2022-10-23T11:09:45.906Z,4.60
2022-10-23T11:12:39.615Z,4.20
2022-10-23T11:15:41.041Z,3.37
2022-10-23T11:18:36.690Z,4.10
2022-10-23T11:21:36.914Z,4.57
2022-10-23T11:24:59.798Z,5.53
2022-10-23T11:28:10.801Z,6.40
2022-10-23T11:31:18.345Z,4.13
2022-10-23T11:34:44.987Z,6.03
2022-10-23T11:37:37.430Z,6.23
2022-10-23T11:40:30.747Z,6.30
2022-10-23T11:43:33.633Z,4.17
2022-10-23T11:46:39.303Z,4.23
2022-10-23T11:49:32.411Z,7.10
2022-10-23T11:52:28.486Z,5.43
2022-10-23T11:55:24.404Z,7.63
2022-10-23T11:58:32.419Z,7.47
2022-10-23T12:01:42.319Z,5.70
2022-10-23T12:04:48.049Z,7.60
2022-10-23T12:07:43.170Z,6.77
2022-10-23T12:10:45.017Z,6.57
2022-10-23T12:13:49.458Z,6.63
2022-10-23T12:16:41.757Z,8.20
2022-10-23T12:22:49.806Z,6.47
2022-10-23T12:25:57.195Z,4.60
2022-10-23T12:28:58.853Z,5.63
2022-10-23T12:31:57.463Z,5.77
2022-10-23T12:35:00.939Z,6.27
2022-10-23T12:38:06.898Z,4.03
2022-10-23T12:41:07.942Z,6.30
2022-10-23T12:44:03.801Z,5.65
2022-10-23T12:46:59.488Z,5.97
2022-10-23T12:49:53.901Z,6.07
2022-10-23T12:52:54.125Z,6.97
2022-10-23T12:55:55.096Z,5.33
2022-10-23T12:58:53.415Z,5.63
2022-10-23T13:01:49.141Z,11.37
2022-10-23T13:04:44.546Z,7.03
2022-10-23T13:07:44.471Z,7.13
2022-10-23T13:10:38.643Z,5.13
2022-10-23T13:13:32.112Z,7.10
2022-10-23T13:16:26.106Z,12.50
2022-10-23T13:19:28.153Z,6.40
2022-10-23T13:22:22.472Z,7.17
2022-10-23T13:25:29.801Z,5.93
2022-10-23T13:28:30.662Z,6.60
2022-10-23T13:31:34.375Z,6.30
2022-10-23T13:34:31.918Z,8.50
2022-10-23T13:37:28.644Z,5.93
2022-10-23T13:40:29.110Z,6.40
2022-10-23T13:43:23.522Z,5.40
2022-10-23T13:46:19.427Z,5.60
2022-10-23T13:49:12.119Z,5.80
2022-10-23T13:52:04.303Z,6.67
2022-10-23T13:54:56.132Z,6.57
2022-10-23T13:57:48.528Z,8.20
2022-10-23T14:00:43.901Z,6.17
2022-10-23T14:03:35.709Z,27.27
2022-10-23T14:09:19.462Z,5.70
2022-10-23T14:12:12.833Z,7.73
2022-10-23T14:15:05.683Z,6.20
2022-10-23T14:17:59.519Z,5.13
2022-10-23T14:20:53.022Z,4.93
2022-10-23T14:23:45.080Z,6.00
2022-10-23T14:26:37.087Z,6.07
2022-10-23T14:29:29.120Z,6.23
2022-10-23T14:32:21.356Z,5.30
2022-10-23T14:35:15.056Z,5.60
2022-10-23T14:38:07.260Z,7.27
2022-10-23T14:40:59.174Z,14.27
2022-10-23T14:43:50.802Z,14.60
2022-10-23T14:46:42.948Z,7.63
2022-10-23T14:49:35.766Z,10.07
2022-10-23T14:52:28.011Z,12.47
2022-10-23T14:55:19.854Z,16.30
2022-10-23T14:58:12.073Z,16.77
2022-10-23T15:01:04.637Z,17.03
2022-10-23T15:03:57.394Z,19.87
2022-10-23T15:06:49.413Z,18.77
2022-10-23T15:12:32.313Z,35.50
2022-10-23T15:15:24.310Z,49.95
2022-10-23T15:18:16.381Z,60.70
2022-10-23T15:21:10.121Z,58.73
2022-10-23T15:24:04.800Z,100.23
2022-10-23T15:26:57.588Z,94.83
2022-10-23T15:29:49.368Z,74.87
2022-10-23T15:35:32.479Z,61.07
2022-10-23T15:38:25.056Z,54.57
2022-10-23T15:41:24.263Z,45.03
2022-10-23T15:44:18.858Z,39.87
2022-10-23T15:47:11.028Z,44.10
2022-10-23T15:50:02.849Z,74.30
2022-10-23T15:55:45.685Z,19.33
2022-10-23T15:58:37.740Z,14.70
2022-10-23T16:04:21.745Z,12.67
2022-10-23T16:07:13.804Z,9.17
2022-10-23T16:10:07.042Z,13.57
2022-10-23T16:12:59.435Z,9.70
2022-10-23T16:15:51.200Z,11.77
2022-10-23T16:18:44.842Z,15.20
2022-10-23T16:21:38.090Z,12.10
2022-10-23T16:24:30.311Z,13.93
2022-10-23T16:30:14.539Z,13.03
2022-10-23T16:33:06.609Z,9.17
2022-10-23T16:38:49.053Z,7.40
2022-10-23T16:41:40.820Z,15.70
2022-10-23T16:44:41.817Z,19.70
2022-10-23T16:47:36.092Z,25.27
2022-10-23T16:50:28.416Z,13.17
2022-10-23T16:53:21.041Z,13.47
2022-10-23T16:56:16.473Z,11.67
2022-10-23T16:59:08.636Z,13.93
2022-10-23T17:02:00.925Z,9.87
2022-10-23T17:04:53.256Z,13.33
2022-10-23T17:07:45.799Z,13.23
2022-10-23T17:10:37.934Z,10.50
2022-10-23T17:13:30.218Z,11.63
2022-10-23T17:16:24.564Z,9.23
2022-10-23T17:19:43.447Z,12.60
2022-10-23T17:22:30.290Z,10.07
2022-10-23T17:25:22.056Z,7.87
2022-10-23T17:28:14.498Z,8.70
2022-10-23T17:31:07.143Z,7.90
2022-10-23T17:34:02.349Z,9.53
2022-10-23T17:36:56.463Z,7.93
2022-10-23T17:39:48.453Z,9.67
2022-10-23T17:45:34.273Z,8.00
2022-10-23T17:48:26.337Z,10.17
2022-10-23T17:51:20.262Z,10.10
2022-10-23T17:54:14.781Z,10.20
2022-10-23T17:57:06.897Z,7.20
2022-10-23T17:59:59.189Z,8.30
2022-10-23T18:02:51.629Z,9.00
2022-10-23T18:05:43.611Z,11.03
2022-10-23T18:08:35.640Z,10.28
2022-10-23T18:11:31.269Z,10.82
2022-10-23T18:14:28.489Z,10.97
2022-10-23T18:17:21.770Z,11.10
2022-10-23T18:20:15.830Z,13.22
2022-10-23T18:23:08.162Z,13.33
2022-10-23T18:26:00.978Z,11.07
2022-10-23T18:28:55.765Z,11.17
2022-10-23T18:31:49.570Z,16.47
2022-10-23T18:34:41.745Z,10.27
2022-10-23T18:37:34.710Z,13.72
2022-10-23T18:40:29.701Z,15.67
2022-10-23T18:43:42.165Z,14.90
2022-10-23T18:46:34.860Z,11.57
2022-10-23T18:49:26.888Z,11.77
2022-10-23T18:52:19.534Z,12.57
2022-10-23T18:55:13.551Z,15.50
2022-10-23T18:58:05.643Z,13.17
2022-10-23T19:00:57.788Z,11.93
2022-10-23T19:03:50.603Z,15.63
2022-10-23T19:06:43.343Z,11.70
2022-10-23T19:09:36.430Z,15.67
2022-10-23T19:12:28.256Z,14.30
2022-10-23T19:15:20.230Z,16.10
2022-10-23T19:18:12.758Z,17.95
2022-10-23T19:21:06.194Z,13.53
2022-10-23T19:24:00.122Z,12.27
2022-10-23T19:26:53.413Z,11.80
2022-10-23T19:29:48.404Z,19.23
2022-10-23T19:32:41.012Z,25.17
2022-10-23T19:38:23.147Z,27.03
2022-10-23T19:41:16.370Z,21.77
2022-10-23T19:44:08.216Z,21.73
2022-10-23T19:47:00.720Z,22.83
2022-10-23T19:49:53.532Z,19.73
2022-10-23T19:52:45.307Z,16.00
2022-10-23T19:55:37.842Z,17.10
2022-10-23T19:58:30.301Z,18.57
2022-10-23T20:01:24.672Z,19.05
2022-10-23T20:04:16.720Z,17.93
2022-10-23T20:07:08.717Z,16.52
2022-10-23T20:10:01.181Z,17.47
2022-10-23T20:12:57.131Z,19.90
2022-10-23T20:16:05.856Z,21.73
2022-10-23T20:18:58.619Z,17.10
2022-10-23T20:21:51.737Z,19.80
2022-10-23T20:24:44.280Z,16.80
2022-10-23T20:30:29.860Z,29.37
2022-10-23T20:33:22.860Z,25.83
2022-10-23T20:36:27.267Z,24.43
2022-10-23T20:39:21.935Z,30.43
2022-10-23T20:42:14.694Z,26.47
2022-10-23T20:45:08.948Z,21.90
2022-10-23T20:48:01.069Z,24.47
2022-10-23T20:50:53.046Z,23.38
2022-10-23T20:53:46.159Z,24.12
2022-10-23T20:56:39.893Z,25.27
2022-10-23T20:59:33.831Z,21.40
2022-10-23T21:02:25.776Z,22.77
2022-10-23T21:05:17.685Z,27.45
2022-10-23T21:08:10.247Z,27.37
2022-10-23T21:11:02.641Z,28.87
2022-10-23T21:13:57.029Z,30.03
2022-10-23T21:16:49.559Z,28.20
2022-10-23T21:19:41.842Z,22.93
2022-10-23T21:25:25.614Z,21.60
2022-10-23T21:28:17.614Z,22.20
2022-10-23T21:31:13.129Z,21.97
2022-10-23T21:34:05.043Z,21.83
2022-10-23T21:37:14.182Z,20.92
2022-10-23T21:40:09.230Z,22.03
2022-10-23T21:43:00.943Z,18.73
2022-10-23T21:45:55.491Z,18.67
2022-10-23T21:48:50.337Z,21.73
2022-10-23T21:51:42.309Z,16.73
2022-10-23T21:54:34.805Z,18.63
2022-10-23T21:57:30.730Z,18.23
2022-10-23T22:00:23.005Z,22.03
2022-10-23T22:03:14.638Z,17.45
2022-10-23T22:06:06.854Z,18.52
2022-10-23T22:09:00.748Z,20.90
2022-10-23T22:11:54.127Z,18.43
2022-10-23T22:14:46.606Z,23.37
2022-10-23T22:17:38.285Z,17.60
2022-10-23T22:20:30.052Z,17.37
2022-10-23T22:23:21.706Z,18.10
2022-10-23T22:26:22.511Z,16.80
2022-10-23T22:29:16.760Z,16.70
2022-10-23T22:32:09.049Z,18.93
2022-10-23T22:35:01.170Z,21.63
2022-10-23T22:37:53.302Z,23.83
2022-10-23T22:40:46.834Z,21.02
2022-10-23T22:43:39.143Z,19.53
2022-10-23T22:46:32.324Z,20.52
2022-10-23T22:49:24.701Z,22.77
2022-10-23T22:52:17.939Z,22.27
2022-10-23T22:55:12.289Z,21.10
2022-10-23T22:58:05.181Z,21.10
2022-10-23T23:01:08.015Z,20.77
2022-10-23T23:07:12.607Z,21.77
2022-10-23T23:10:05.738Z,18.67
2022-10-23T23:12:57.818Z,22.87
2022-10-23T23:15:50.057Z,22.60
2022-10-23T23:21:33.938Z,18.97
2022-10-23T23:24:27.040Z,18.40
2022-10-23T23:27:19.907Z,19.47
2022-10-23T23:30:14.888Z,17.20
2022-10-23T23:33:07.663Z,19.67
2022-10-23T23:38:50.792Z,19.73
2022-10-23T23:44:32.656Z,20.07
2022-10-23T23:47:24.473Z,20.07
2022-10-23T23:50:18.173Z,21.07
2022-10-23T23:53:10.358Z,20.30
2022-10-23T23:56:02.644Z,20.25
2022-10-23T23:58:54.583Z,18.87
